Time;durP1;ratioP1;P1;durP2;ratioP2;P2;SDS_P1;SDS_P2;PMS_P1;PMS_P2;Temp;Humidity;BMP_temperature;BMP_pressure;BME280_temperature;BME280_humidity;BME280_pressure;Samples;Min_cycle;Max_cycle;Signal;HPM_P1;HPM_P2
2023/01/19 00:01:25;;;;;;;;;19.00;9.50;;;;;3.98;100.00;100463.56;5016708;28;45256;-85
2023/01/19 00:03:56;;;;;;;;;11.25;9.50;;;;;3.97;100.00;100454.97;4998279;28;48165;-86
2023/01/19 00:06:21;;;;;;;;;15.00;9.75;;;;;3.95;100.00;100461.84;4998368;28;45450;-86
2023/01/19 00:08:49;;;;;;;;;15.25;9.75;;;;;3.97;100.00;100460.09;4998722;28;45461;-86
2023/01/19 00:11:28;;;;;;;;;;;;;;;;;;;;;
2023/01/19 00:14:05;;;;;;;;;;;;;;;;;;;;;
2023/01/19 00:16:34;;;;;;;;;15.25;8.75;;;;;3.85;100.00;100467.94;4996542;28;73213;-86
2023/01/19 00:19:02;;;;;;;;;17.50;13.00;;;;;3.85;100.00;100470.50;4998395;28;45330;-85
2023/01/19 00:21:49;;;;;;;;;17.75;9.50;;;;;3.88;100.00;100471.34;4998401;28;45585;-86
2023/01/19 00:24:44;;;;;;;;;;;;;;;;;;;;;
2023/01/19 00:27:19;;;;;;;;;15.00;8.00;;;;;3.96;100.00;100473.88;5004342;28;73868;-87
2023/01/19 00:29:44;;;;;;;;;16.50;7.00;;;;;3.99;100.00;100481.59;5016283;28;45490;-86
2023/01/19 00:32:22;;;;;;;;;;;;;;;;;;;;;
2023/01/19 00:34:53;;;;;;;;;9.00;9.00;;;;;3.84;100.00;100479.06;5000334;28;76313;-86
2023/01/19 00:37:21;;;;;;;;;12.50;7.50;;;;;3.83;100.00;100478.22;5001909;28;45683;-86
2023/01/19 00:39:46;;;;;;;;;15.75;8.00;;;;;3.82;100.00;100476.50;5001921;28;45359;-86
2023/01/19 00:44:58;;;;;;;;;10.00;7.00;;;;;3.79;100.00;100479.13;5018276;28;45371;-86
2023/01/19 00:47:26;;;;;;;;;9.75;9.00;;;;;3.76;100.00;100479.13;5019459;28;45381;-86
2023/01/19 00:50:01;;;;;;;;;;;;;;;;;;;;;
2023/01/19 00:52:27;;;;;;;;;13.00;6.75;;;;;3.78;100.00;100479.13;4998900;28;71176;-86
2023/01/19 00:54:58;;;;;;;;;12.00;8.50;;;;;3.86;100.00;100490.22;5001068;28;48096;-86
2023/01/19 00:57:36;;;;;;;;;;;;;;;;;;;;;
2023/01/19 01:00:10;;;;;;;;;15.25;9.25;;;;;3.98;100.00;100492.75;5002281;28;67334;-86
2023/01/19 01:02:43;;;;;;;;;6.50;5.50;;;;;4.01;100.00;100502.16;5018473;28;45600;-86
2023/01/19 01:05:28;;;;;;;;;;;;;;;;;;;;;
2023/01/19 01:07:57;;;;;;;;;16.00;7.00;;;;;3.92;100.00;100508.22;5016176;28;73983;-86
2023/01/19 01:10:24;;;;;;;;;12.50;9.25;;;;;3.85;100.00;100511.69;5018886;28;45369;-85
2023/01/19 01:13:00;;;;;;;;;9.00;6.50;;;;;3.82;100.00;100512.56;5001505;28;45644;-86
2023/01/19 01:15:29;;;;;;;;;7.50;6.00;;;;;3.80;100.00;100513.44;4985494;28;47116;-86
2023/01/19 01:17:55;;;;;;;;;13.25;6.75;;;;;3.82;100.00;100522.00;5000676;28;45889;-86
2023/01/19 01:20:31;;;;;;;;;6.00;6.00;;;;;3.78;100.00;100515.16;5001411;28;45222;-85
2023/01/19 01:22:57;;;;;;;;;8.50;5.50;;;;;3.71;100.00;100516.91;5001512;28;45288;-86
2023/01/19 01:25:24;;;;;;;;;6.75;6.00;;;;;3.68;100.00;100512.63;5000718;28;47108;-86
2023/01/19 01:28:00;;;;;;;;;;;;;;;;;;;;;
2023/01/19 01:30:26;;;;;;;;;10.75;7.00;;;;;3.66;100.00;100516.09;4998329;28;69152;-86
2023/01/19 01:33:03;;;;;;;;;11.75;8.00;;;;;3.66;100.00;100531.53;5000629;28;45494;-85
2023/01/19 01:35:36;;;;;;;;;9.25;7.00;;;;;3.67;100.00;100526.34;5018167;28;46343;-86
2023/01/19 01:38:12;;;;;;;;;12.75;7.00;;;;;3.76;100.00;100540.06;5018448;28;45297;-86
2023/01/19 01:40:41;;;;;;;;;11.00;7.00;;;;;3.76;100.00;100538.34;5002207;28;45399;-85
2023/01/19 01:44:15;;;;;;;;;;;;;;;;;;;;;
2023/01/19 01:46:59;;;;;;;;;;;;;;;;;;;;;
2023/01/19 01:49:27;;;;;;;;;7.25;6.75;;;;;3.69;100.00;100550.38;5013146;28;74263;-86
2023/01/19 01:51:56;;;;;;;;;3.50;1.00;;;;;3.75;100.00;100548.63;5017297;28;45248;-86
2023/01/19 01:54:41;;;;;;;;;12.00;7.00;;;;;3.72;100.00;100553.81;5017171;28;45428;-85
2023/01/19 01:57:11;;;;;;;;;10.00;7.00;;;;;3.72;100.00;100561.53;5000982;28;47125;-86
2023/01/19 02:00:20;;;;;;;;;16.00;8.50;;;;;3.70;100.00;100558.97;5000357;28;45837;-86
2023/01/19 02:03:09;;;;;;;;;11.50;6.25;;;;;3.68;100.00;100558.13;5003264;28;45452;-86
2023/01/19 02:05:37;;;;;;;;;14.25;5.00;;;;;3.72;100.00;100561.53;5001559;28;45525;-86
2023/01/19 02:13:46;;;;;;;;;10.50;9.00;;;;;3.73;100.00;100555.50;5003120;28;45374;-86
2023/01/19 02:16:22;;;;;;;;;9.50;6.00;;;;;3.75;100.00;100557.25;4999705;28;45489;-86
2023/01/19 02:19:05;;;;;;;;;10.75;9.00;;;;;3.78;100.00;100556.34;5001385;28;46607;-86
2023/01/19 02:21:43;;;;;;;;;8.00;7.00;;;;;3.82;100.00;100555.47;5000005;28;45855;-85
2023/01/19 02:24:09;;;;;;;;;17.75;9.00;;;;;3.84;100.00;100554.59;5016651;28;45334;-86
2023/01/19 02:26:41;;;;;;;;;9.00;9.00;;;;;3.87;100.00;100562.31;5016307;28;45441;-84
2023/01/19 02:29:30;;;;;;;;;11.25;9.50;;;;;3.91;100.00;100565.75;5017584;28;46316;-85
2023/01/19 02:32:00;;;;;;;;;12.50;9.00;;;;;3.92;100.00;100564.88;5000085;28;45295;-85
2023/01/19 02:34:29;;;;;;;;;19.50;7.00;;;;;4.00;100.00;100567.44;5016155;28;45416;-86
2023/01/19 02:37:11;;;;;;;;;10.00;7.00;;;;;3.99;100.00;100568.28;5010647;28;45347;-85
2023/01/19 02:39:54;;;;;;;;;10.50;8.50;;;;;4.01;100.00;100564.84;4981381;28;46325;-85
2023/01/19 02:42:29;;;;;;;;;9.00;7.00;;;;;4.03;100.00;100557.97;4985718;28;45408;-86
2023/01/19 02:45:07;;;;;;;;;;;;;;;;;;;;;
2023/01/19 02:47:50;;;;;;;;;17.00;10.00;;;;;3.98;100.00;100570.00;4997024;28;71574;-86
2023/01/19 02:50:34;;;;;;;;;15.50;8.00;;;;;3.90;100.00;100563.16;4994220;28;46327;-85
2023/01/19 02:53:11;;;;;;;;;11.00;7.50;;;;;3.85;100.00;100563.19;5016138;28;45912;-86
2023/01/19 02:55:49;;;;;;;;;;;;;;;;;;;;;
2023/01/19 02:58:41;;;;;;;;;14.00;10.50;;;;;3.80;100.00;100552.06;4999733;28;68509;-86
2023/01/19 03:01:40;;;;;;;;;15.50;9.25;;;;;3.80;100.00;100560.63;5016781;28;46311;-85
2023/01/19 03:04:22;;;;;;;;;12.25;9.00;;;;;3.78;100.00;100561.50;4921966;28;45754;-85
2023/01/19 03:06:54;;;;;;;;;11.00;10.50;;;;;3.77;100.00;100567.50;4920946;28;45495;-86
2023/01/19 03:09:42;;;;;;;;;10.75;6.25;;;;;3.82;100.00;100564.03;4920730;28;45478;-86
2023/01/19 03:12:48;;;;;;;;;16.50;8.00;;;;;3.85;100.00;100565.78;4936357;28;45795;-86
2023/01/19 03:16:01;;;;;;;;;;;;;;;;;;;;;
2023/01/19 03:18:54;;;;;;;;;18.00;9.00;;;;;3.79;100.00;100558.06;4900687;28;70119;-84
2023/01/19 03:21:41;;;;;;;;;13.25;6.50;;;;;3.75;100.00;100558.94;4890653;29;45394;-84
2023/01/19 03:24:15;;;;;;;;;12.50;9.00;;;;;3.68;100.00;100558.13;4894574;28;45457;-86
2023/01/19 03:26:57;;;;;;;;;;;;;;;;;;;;;
2023/01/19 03:29:27;;;;;;;;;13.50;7.00;;;;;3.69;100.00;100562.38;4898777;28;70110;-84
2023/01/19 03:32:03;;;;;;;;;12.75;9.00;;;;;3.66;100.00;100558.13;4917302;28;45588;-84
2023/01/19 03:34:35;;;;;;;;;18.75;10.00;;;;;3.67;100.00;100557.25;4902764;28;45496;-84
2023/01/19 03:37:08;;;;;;;;;20.50;9.00;;;;;3.68;100.00;100553.81;4901661;28;45494;-84
2023/01/19 03:40:02;;;;;;;;;18.75;11.50;;;;;3.68;100.00;100561.53;4900090;28;45362;-86
2023/01/19 03:42:30;;;;;;;;;14.75;11.00;;;;;3.68;100.00;100563.25;4955451;28;45369;-85
2023/01/19 03:45:07;;;;;;;;;12.75;11.50;;;;;3.66;100.00;100565.84;4939801;28;46557;-84
2023/01/19 03:47:35;;;;;;;;;17.00;10.00;;;;;3.67;100.00;100575.25;4940076;28;45912;-85
2023/01/19 03:50:04;;;;;;;;;14.50;9.25;;;;;3.72;100.00;100571.84;4939854;28;45350;-84
2023/01/19 03:52:34;;;;;;;;;16.50;13.00;;;;;3.70;100.00;100574.41;4939435;28;45527;-84
2023/01/19 03:55:23;;;;;;;;;13.75;10.00;;;;;3.65;100.00;100568.41;5015699;28;45356;-85
2023/01/19 03:58:00;;;;;;;;;;;;;;;;;;;;;
2023/01/19 04:00:28;;;;;;;;;16.50;12.00;;;;;3.51;100.00;100570.16;4997764;28;70166;-85
2023/01/19 04:03:11;;;;;;;;;10.00;7.00;;;;;3.46;100.00;100573.63;4999133;28;45474;-85
2023/01/19 04:06:09;;;;;;;;;;;;;;;;;;;;;
2023/01/19 04:08:35;;;;;;;;;9.75;9.00;;;;;3.35;100.00;100577.06;4997231;28;73751;-85
2023/01/19 04:11:11;;;;;;;;;;;;;;;;;;;;;
2023/01/19 04:13:39;;;;;;;;;10.25;7.50;;;;;3.34;100.00;100570.19;4997546;28;71138;-85
2023/01/19 04:16:07;;;;;;;;;21.50;7.50;;;;;3.38;100.00;100577.94;5014798;28;48248;-85
2023/01/19 04:18:38;;;;;;;;;14.50;11.00;;;;;3.44;100.00;100566.75;4998069;28;46182;-85
2023/01/19 04:21:13;;;;;;;;;11.00;6.50;;;;;3.55;100.00;100566.72;4998632;28;45414;-86
2023/01/19 04:23:48;;;;;;;;;17.25;10.00;;;;;3.57;100.00;100567.59;4999881;28;45442;-85
2023/01/19 04:26:27;;;;;;;;;;;;;;;;;;;;;
2023/01/19 04:29:05;;;;;;;;;;;;;;;;;;;;;
2023/01/19 04:31:41;;;;;;;;;;;;;;;;;;;;;
2023/01/19 04:34:13;;;;;;;;;13.75;8.00;;;;;3.68;100.00;100560.69;4997900;28;69947;-85
2023/01/19 04:36:51;;;;;;;;;;;;;;;;;;;;;
2023/01/19 04:39:27;;;;;;;;;;;;;;;;;;;;;
2023/01/19 04:42:02;;;;;;;;;;;;;;;;;;;;;
2023/01/19 04:44:42;;;;;;;;;8.75;6.00;;;;;3.53;100.00;100563.28;4991645;28;69961;-85
2023/01/19 04:47:10;;;;;;;;;12.50;9.00;;;;;3.50;100.00;100566.75;4995972;28;45496;-86
2023/01/19 04:49:40;;;;;;;;;15.00;11.00;;;;;3.46;100.00;100558.16;4979001;28;45370;-85
2023/01/19 04:52:10;;;;;;;;;15.25;10.00;;;;;3.48;100.00;100576.19;4995286;28;45413;-86
2023/01/19 04:54:38;;;;;;;;;12.50;8.75;;;;;3.40;100.00;100560.78;4968458;28;45336;-86
2023/01/19 04:57:14;;;;;;;;;;;;;;;;;;;;;
2023/01/19 04:59:49;;;;;;;;;10.25;7.50;;;;;3.39;100.00;100568.50;4957917;28;71895;-85
2023/01/19 05:02:28;;;;;;;;;9.75;9.00;;;;;3.35;100.00;100562.50;4975812;28;45395;-85
2023/01/19 05:04:56;;;;;;;;;7.50;6.00;;;;;3.30;100.00;100562.47;4961035;28;45564;-86
2023/01/19 05:07:22;;;;;;;;;10.00;8.00;;;;;3.29;100.00;100565.09;4975532;28;45446;-85
2023/01/19 05:09:57;;;;;;;;;;;;;;;;;;;;;
2023/01/19 05:12:35;;;;;;;;;;;;;;;;;;;;;
2023/01/19 05:15:13;;;;;;;;;;;;;;;;;;;;;
2023/01/19 05:17:52;;;;;;;;;;;;;;;;;;;;;
2023/01/19 05:20:29;;;;;;;;;11.75;6.75;;;;;3.23;100.00;100567.66;4973652;28;72682;-86
2023/01/19 05:22:59;;;;;;;;;18.00;9.25;;;;;3.18;100.00;100569.38;4978528;28;45296;-86
2023/01/19 05:25:25;;;;;;;;;15.50;12.00;;;;;3.19;100.00;100564.22;4962287;28;45507;-86
2023/01/19 05:28:17;;;;;;;;;;;;;;;;;;;;;
2023/01/19 05:30:55;;;;;;;;;;;;;;;;;;;;;
2023/01/19 05:33:44;;;;;;;;;16.00;9.25;;;;;3.13;100.00;100564.22;4976061;28;69996;-86
2023/01/19 05:36:19;;;;;;;;;;;;;;;;;;;;;
2023/01/19 05:39:02;;;;;;;;;;;;;;;;;;;;;
2023/01/19 05:41:35;;;;;;;;;12.00;7.50;;;;;3.02;100.00;100560.81;4977636;28;71680;-86
2023/01/19 05:44:20;;;;;;;;;;;;;;;;;;;;;
2023/01/19 05:46:56;;;;;;;;;19.75;9.00;;;;;2.96;100.00;100559.09;4997799;28;70238;-86
2023/01/19 05:49:30;;;;;;;;;12.50;9.50;;;;;2.91;100.00;100561.66;4998845;28;45330;-86
2023/01/19 05:52:01;;;;;;;;;12.50;9.00;;;;;2.90;100.00;100569.41;4981364;28;45284;-86
2023/01/19 05:54:39;;;;;;;;;12.00;8.75;;;;;2.89;100.00;100565.97;4989975;28;45263;-86
2023/01/19 05:57:18;;;;;;;;;11.00;9.00;;;;;2.86;100.00;100570.25;5017548;28;45336;-86
2023/01/19 05:59:46;;;;;;;;;11.75;7.50;;;;;2.85;100.00;100565.97;5018425;28;46234;-86
2023/01/19 06:02:21;;;;;;;;;;;;;;;;;;;;;
2023/01/19 06:04:56;;;;;;;;;6.25;6.00;;;;;2.84;100.00;100570.25;5001911;28;68135;-87
2023/01/19 06:07:24;;;;;;;;;12.50;5.50;;;;;2.81;100.00;100564.25;5001696;28;45358;-86
2023/01/19 06:09:50;;;;;;;;;11.75;7.50;;;;;2.80;100.00;100560.81;4984852;28;48280;-86
2023/01/19 06:12:15;;;;;;;;;16.00;4.00;;;;;2.78;100.00;100567.66;5000654;28;45245;-85
2023/01/19 06:14:43;;;;;;;;;9.00;7.00;;;;;2.78;100.00;100569.41;5000262;28;45703;-86
2023/01/19 06:17:08;;;;;;;;;10.25;6.50;;;;;2.76;100.00;100568.53;5018063;28;45304;-85
2023/01/19 06:19:36;;;;;;;;;13.25;7.00;;;;;2.73;100.00;100574.53;4999970;28;48121;-86
2023/01/19 06:22:01;;;;;;;;;12.50;7.00;;;;;2.74;100.00;100575.41;5000219;28;46045;-86
2023/01/19 06:24:31;;;;;;;;;6.00;5.50;;;;;2.70;100.00;100582.25;4983629;28;45822;-86
2023/01/19 06:27:05;;;;;;;;;8.25;6.25;;;;;2.71;100.00;100582.25;5017518;28;45382;-86
2023/01/19 06:29:30;;;;;;;;;9.00;4.50;;;;;2.71;100.00;100582.25;5016736;28;46491;-85
2023/01/19 06:31:56;;;;;;;;;9.75;6.00;;;;;2.71;100.00;100592.53;4983505;28;45478;-85
2023/01/19 06:34:22;;;;;;;;;8.50;6.50;;;;;2.71;100.00;100578.81;5000254;28;45477;-85
2023/01/19 06:36:47;;;;;;;;;7.00;6.50;;;;;2.68;100.00;100589.94;4999553;28;45400;-86
2023/01/19 06:39:12;;;;;;;;;13.00;6.75;;;;;2.71;100.00;100594.22;4999456;28;45443;-84
2023/01/19 06:41:39;;;;;;;;;9.00;6.00;;;;;2.69;100.00;100594.25;4999878;28;45329;-84
2023/01/19 06:44:04;;;;;;;;;8.50;6.50;;;;;2.65;100.00;100587.38;5007421;28;45378;-83
2023/01/19 06:46:30;;;;;;;;;6.00;6.00;;;;;2.68;100.00;100592.53;4999159;28;45602;-84
2023/01/19 06:48:56;;;;;;;;;6.25;6.25;;;;;2.68;100.00;100592.53;4999366;28;46325;-84
2023/01/19 06:51:22;;;;;;;;;9.00;6.25;;;;;2.65;100.00;100589.09;4982621;28;45820;-83
2023/01/19 06:53:47;;;;;;;;;10.00;6.00;;;;;2.65;100.00;100595.06;4995594;28;45357;-84
2023/01/19 06:56:13;;;;;;;;;8.50;4.50;;;;;2.66;100.00;100599.38;4997135;28;47250;-83
2023/01/19 06:58:40;;;;;;;;;9.75;6.00;;;;;2.67;100.00;100592.50;4977141;28;60833;-86
2023/01/19 07:01:06;;;;;;;;;7.00;6.00;;;;;2.68;100.00;100605.38;4997500;28;45842;-86
2023/01/19 07:03:33;;;;;;;;;9.50;4.00;;;;;2.69;100.00;100606.22;4997931;28;45255;-88
2023/01/19 07:06:10;;;;;;;;;8.00;5.00;;;;;2.69;100.00;100598.50;4977057;28;45579;-89
2023/01/19 07:08:39;;;;;;;;;6.25;5.50;;;;;2.68;100.00;100601.94;4987346;28;46276;-86
2023/01/19 07:11:07;;;;;;;;;7.50;4.00;;;;;2.65;100.00;100595.06;4997263;28;45349;-86
2023/01/19 07:13:33;;;;;;;;;5.00;5.00;;;;;2.67;100.00;100606.22;4995131;28;45243;-87
2023/01/19 07:16:06;;;;;;;;;6.75;5.50;;;;;2.66;100.00;100604.50;4995806;28;45604;-86
2023/01/19 07:18:32;;;;;;;;;9.25;4.50;;;;;2.64;100.00;100605.38;4967910;28;45831;-86
2023/01/19 07:20:58;;;;;;;;;8.00;5.50;;;;;2.60;100.00;100594.25;4978284;28;45433;-85
2023/01/19 07:23:23;;;;;;;;;9.50;6.00;;;;;2.59;100.00;100596.78;4976574;28;45697;-86
2023/01/19 07:25:49;;;;;;;;;10.25;4.00;;;;;2.58;100.00;100590.81;4974534;28;45177;-88
2023/01/19 07:28:17;;;;;;;;;4.50;3.25;;;;;2.59;100.00;100595.06;4976258;28;46928;-87
2023/01/19 07:30:44;;;;;;;;;12.75;7.25;;;;;2.58;100.00;100601.09;4980007;28;45995;-88
2023/01/19 07:33:17;;;;;;;;;6.25;4.50;;;;;2.59;100.00;100599.38;4979796;28;45425;-87
2023/01/19 07:35:58;;;;;;;;;7.00;4.00;;;;;2.57;100.00;100595.94;4969125;28;45557;-91
2023/01/19 07:38:24;;;;;;;;;12.00;4.00;;;;;2.57;100.00;100595.94;4944952;28;48128;-88
2023/01/19 07:40:49;;;;;;;;;6.00;6.00;;;;;2.52;100.00;100601.91;4959898;28;45704;-86
2023/01/19 07:43:15;;;;;;;;;8.00;7.00;;;;;2.52;100.00;100595.91;4974136;28;45360;-87
2023/01/19 07:45:45;;;;;;;;;7.00;4.50;;;;;2.54;100.00;100599.34;4979424;28;45592;-87
2023/01/19 07:48:10;;;;;;;;;8.00;8.00;;;;;2.58;100.00;100606.22;4975594;28;47316;-88
2023/01/19 07:50:36;;;;;;;;;9.25;4.50;;;;;2.58;100.00;100603.66;4959829;28;45349;-86
2023/01/19 07:53:06;;;;;;;;;4.50;4.50;;;;;2.61;100.00;100613.91;4976049;28;45364;-86
2023/01/19 07:55:32;;;;;;;;;7.50;6.00;;;;;2.57;100.00;100609.63;5009994;28;45505;-86
2023/01/19 07:57:57;;;;;;;;;10.75;7.00;;;;;2.58;100.00;100613.94;4981948;28;45454;-86
2023/01/19 08:00:24;;;;;;;;;9.50;6.25;;;;;2.60;100.00;100625.06;4998295;28;45485;-86
2023/01/19 08:02:58;;;;;;;;;13.25;8.00;;;;;2.61;100.00;100616.50;4984981;28;45474;-85
2023/01/19 08:05:24;;;;;;;;;8.00;6.00;;;;;2.63;100.00;100616.50;5007962;28;45440;-86
2023/01/19 08:07:51;;;;;;;;;12.50;9.25;;;;;2.64;100.00;100621.66;5002488;28;47066;-86
2023/01/19 08:10:17;;;;;;;;;9.75;7.00;;;;;2.69;100.00;100621.63;5014563;28;45400;-83
2023/01/19 08:12:43;;;;;;;;;10.50;9.25;;;;;2.75;100.00;100620.78;5000151;28;45663;-87
2023/01/19 08:15:11;;;;;;;;;8.00;3.75;;;;;2.80;100.00;100624.22;5008297;28;45366;-85
2023/01/19 08:17:37;;;;;;;;;13.50;9.75;;;;;2.82;100.00;100623.41;4997921;28;46774;-85
2023/01/19 08:20:06;;;;;;;;;13.75;9.75;;;;;2.89;100.00;100634.53;4997746;28;45546;-85
2023/01/19 08:22:32;;;;;;;;;10.50;9.00;;;;;2.99;100.00;100632.81;4997050;28;45409;-84
2023/01/19 08:25:00;;;;;;;;;16.50;9.75;;;;;3.05;100.00;100625.97;4985665;28;45333;-84
2023/01/19 08:27:25;;;;;;;;;13.00;9.75;;;;;3.15;100.00;100624.25;5015072;28;45405;-85
2023/01/19 08:29:51;;;;;;;;;14.50;9.00;;;;;3.25;100.00;100618.25;4981180;28;45438;-86
2023/01/19 08:32:16;;;;;;;;;15.00;12.25;;;;;3.36;100.00;100630.22;5014629;28;45342;-86
2023/01/19 08:34:42;;;;;;;;;7.00;7.00;;;;;3.43;100.00;100627.66;5015416;28;45692;-85
2023/01/19 08:37:18;;;;;;;;;10.00;8.00;;;;;3.52;100.00;100625.94;5012953;28;46284;-85
2023/01/19 08:39:53;;;;;;;;;9.00;9.00;;;;;3.62;100.00;100627.63;5000978;28;45526;-86
2023/01/19 08:42:33;;;;;;;;;;;;;;;;;;;;;
2023/01/19 08:45:19;;;;;;;;;;;;;;;;;;;;;
2023/01/19 08:48:03;;;;;;;;;;;;;;;;;;;;;
2023/01/19 08:51:08;;;;;;;;;;;;;;;;;;;;;
2023/01/19 08:54:03;;;;;;;;;6.75;6.50;;;;;4.06;100.00;100635.22;5002889;28;45310;-86
2023/01/19 08:56:48;;;;;;;;;14.00;10.25;;;;;4.14;100.00;100639.47;4918222;28;45395;-86
2023/01/19 08:59:36;;;;;;;;;17.25;9.50;;;;;4.18;100.00;100643.75;4902601;28;45623;-89
2023/01/19 09:02:02;;;;;;;;;9.25;7.00;;;;;4.26;100.00;100648.00;4899480;29;45567;-86
2023/01/19 09:04:40;;;;;;;;;;;;;;;;;;;;;
2023/01/19 09:07:11;;;;;;;;;13.50;6.00;;;;;4.43;100.00;100639.34;4917543;28;70325;-87
2023/01/19 09:09:48;;;;;;;;;7.50;6.00;;;;;4.47;100.00;100649.63;4902594;28;45972;-86
2023/01/19 09:12:43;;;;;;;;;;;;;;;;;;;;;
2023/01/19 09:15:31;;;;;;;;;;;;;;;;;;;;;
2023/01/19 09:18:12;;;;;;;;;;;;;;;;;;;;;
2023/01/19 09:20:54;;;;;;;;;5.00;5.00;;;;;4.48;100.00;100653.06;4910947;28;75381;-87
2023/01/19 09:23:31;;;;;;;;;3.50;3.50;;;;;4.47;100.00;100647.03;4903935;28;45509;-86
2023/01/19 09:26:02;;;;;;;;;11.00;7.00;;;;;4.37;100.00;100637.66;4922371;28;45797;-86
2023/01/19 09:28:42;;;;;;;;;;;;;;;;;;;;;
2023/01/19 09:31:10;;;;;;;;;7.00;4.00;;;;;4.41;100.00;100639.34;4916865;28;75684;-86
2023/01/19 09:34:06;;;;;;;;;9.25;4.75;;;;;4.51;100.00;100640.16;4972961;28;45957;-87
2023/01/19 09:36:39;;;;;;;;;;;;;;;;;;;;;
2023/01/19 09:39:10;;;;;;;;;6.00;6.00;;;;;4.76;100.00;100637.44;4982541;28;69026;-87
2023/01/19 09:42:05;;;;;;;;;16.25;11.25;;;;;4.97;100.00;100639.00;4982173;28;47286;-87
2023/01/19 09:44:42;;;;;;;;;;;;;;;;;;;;;
2023/01/19 09:47:23;;;;;;;;;;;;;;;;;;;;;
2023/01/19 09:50:05;;;;;;;;;8.75;7.00;;;;;5.29;100.00;100648.22;4975045;28;71202;-87
2023/01/19 09:52:46;;;;;;;;;;;;;;;;;;;;;
2023/01/19 09:55:27;;;;;;;;;11.00;9.00;;;;;5.41;100.00;100642.94;4970232;28;74247;-87
2023/01/19 09:57:53;;;;;;;;;15.75;5.75;;;;;5.49;100.00;100646.31;4979787;28;45323;-87
2023/01/19 10:00:21;;;;;;;;;11.75;7.00;;;;;5.55;100.00;100642.81;4980171;28;45498;-87
2023/01/19 10:03:29;;;;;;;;;;;;;;;;;;;;;
2023/01/19 10:06:02;;;;;;;;;14.25;9.75;;;;;5.73;100.00;100645.22;4881339;29;74222;-87
2023/01/19 10:08:44;;;;;;;;;16.25;7.50;;;;;5.82;100.00;100646.84;4902142;28;45570;-87
2023/01/19 10:11:38;;;;;;;;;16.75;10.50;;;;;5.85;100.00;100654.56;4902225;28;45431;-87
2023/01/19 10:14:24;;;;;;;;;;;;;;;;;;;;;
2023/01/19 10:17:11;;;;;;;;;;;;;;;;;;;;;
2023/01/19 10:19:54;;;;;;;;;;;;;;;;;;;;;
2023/01/19 10:22:23;;;;;;;;;13.25;7.50;;;;;5.98;100.00;100656.19;4911385;28;71134;-87
2023/01/19 10:25:09;;;;;;;;;;;;;;;;;;;;;
2023/01/19 10:27:38;;;;;;;;;10.00;7.75;;;;;6.08;100.00;100649.16;4915914;28;73274;-88
2023/01/19 10:30:09;;;;;;;;;10.00;8.00;;;;;6.13;100.00;100655.13;4902305;28;45468;-87
2023/01/19 10:32:40;;;;;;;;;10.50;8.50;;;;;6.20;100.00;100646.44;4917494;28;45634;-85
2023/01/19 10:35:23;;;;;;;;;11.00;10.00;;;;;6.28;100.00;100645.47;4902038;28;47114;-89
2023/01/19 10:38:02;;;;;;;;;;;;;;;;;;;;;
2023/01/19 10:40:53;;;;;;;;;10.75;10.50;;;;;6.32;100.00;100642.84;4902831;28;68986;-87
2023/01/19 10:43:44;;;;;;;;;19.25;10.25;;;;;6.42;100.00;100635.81;4985099;28;45378;-88
2023/01/19 10:46:56;;;;;;;;;;;;;;;;;;;;;
2023/01/19 10:49:36;;;;;;;;;;;;;;;;;;;;;
2023/01/19 10:52:13;;;;;;;;;13.25;9.00;;;;;6.44;100.00;100633.22;4915035;28;68801;-87
2023/01/19 10:54:47;;;;;;;;;10.75;10.00;;;;;6.44;100.00;100626.28;4904885;28;45455;-87
2023/01/19 10:57:42;;;;;;;;;13.25;9.00;;;;;6.53;100.00;100625.31;4896909;28;46414;-85
2023/01/19 11:00:37;;;;;;;;;11.50;10.25;;;;;6.74;100.00;100617.25;4909896;28;45907;-87
2023/01/19 11:03:34;;;;;;;;;;;;;;;;;;;;;
2023/01/19 11:06:17;;;;;;;;;15.00;13.00;;;;;7.24;100.00;100617.31;4919723;28;69923;-87
2023/01/19 11:08:44;;;;;;;;;18.00;10.75;;;;;7.32;100.00;100618.03;4933883;28;48217;-85
2023/01/19 11:11:11;;;;;;;;;22.00;14.50;;;;;7.26;100.00;100612.97;4936137;28;45634;-85
2023/01/19 11:13:45;;;;;;;;;23.50;14.75;;;;;7.24;100.00;100614.72;4922145;28;45558;-87
2023/01/19 11:16:26;;;;;;;;;20.50;13.50;;;;;7.27;100.00;100611.25;4912733;28;45707;-86
2023/01/19 11:18:54;;;;;;;;;17.50;15.25;;;;;7.44;100.00;100605.75;4988934;28;45630;-86
2023/01/19 11:21:25;;;;;;;;;16.00;11.00;;;;;7.63;100.00;100603.69;4979282;28;46280;-86
2023/01/19 11:23:56;;;;;;;;;17.50;10.75;;;;;7.70;100.00;100603.53;4976166;28;45324;-87
2023/01/19 11:26:44;;;;;;;;;16.25;12.00;;;;;7.75;100.00;100600.88;4960011;28;45390;-86
2023/01/19 11:29:26;;;;;;;;;17.00;14.25;;;;;7.74;100.00;100604.31;4972422;28;46261;-84
2023/01/19 11:31:53;;;;;;;;;11.75;11.50;;;;;7.63;100.00;100601.94;4995411;28;45394;-86
2023/01/19 11:34:35;;;;;;;;;;;;;;;;;;;;;
2023/01/19 11:37:02;;;;;;;;;12.00;10.75;;;;;7.40;100.00;100597.19;4975872;28;71143;-86
2023/01/19 11:39:34;;;;;;;;;30.75;18.25;;;;;7.40;100.00;100594.59;4993266;28;45490;-86
2023/01/19 11:42:11;;;;;;;;;28.50;17.50;;;;;7.32;100.00;100597.34;4982394;28;45939;-85
2023/01/19 11:44:43;;;;;;;;;14.50;14.50;;;;;7.23;100.00;100594.06;4963245;28;45475;-87
2023/01/19 11:47:20;;;;;;;;;17.25;12.00;;;;;7.14;100.00;100589.88;4969641;28;45361;-86
2023/01/19 11:53:34;;;;;;;;;18.00;15.00;;;;;6.81;100.00;100579.19;5043714;22;45940;-84
2023/01/19 11:56:09;;;;;;;;;30.50;21.00;;;;;6.73;100.00;100581.06;5051625;28;45511;-84
2023/01/19 11:58:40;;;;;;;;;27.00;19.75;;;;;6.69;100.00;100582.00;5018686;28;45552;-85
2023/01/19 12:01:28;;;;;;;;;31.00;24.00;;;;;6.66;100.00;100576.84;5029599;28;46924;-86
2023/01/19 12:04:15;;;;;;;;;15.25;11.00;;;;;6.66;100.00;100571.69;5051234;28;45402;-85
2023/01/19 12:06:44;;;;;;;;;26.00;14.75;;;;;6.67;100.00;100571.66;5016898;28;45476;-85
2023/01/19 12:09:09;;;;;;;;;12.50;11.00;;;;;6.68;100.00;100563.00;5024836;28;45304;-81
2023/01/19 12:11:39;;;;;;;;;15.00;10.67;;;;;6.65;100.00;100552.72;5049849;28;47729;-85
2023/01/19 12:14:12;;;;;;;;;16.25;13.25;;;;;6.67;100.00;100555.31;5018697;28;45876;-86
2023/01/19 12:16:37;;;;;;;;;15.00;10.00;;;;;6.63;100.00;100549.31;5016732;28;45364;-83
2023/01/19 12:19:08;;;;;;;;;18.25;9.25;;;;;6.60;100.00;100544.19;5033983;28;45489;-83
2023/01/19 12:21:34;;;;;;;;;18.50;13.75;;;;;6.51;100.00;100546.91;5016313;28;45483;-85
2023/01/19 12:24:15;;;;;;;;;14.00;8.75;;;;;6.50;100.00;100546.06;5045930;28;45338;-84
2023/01/19 12:26:50;;;;;;;;;16.00;10.00;;;;;6.46;100.00;100544.38;5004308;28;45363;-85
2023/01/19 12:29:21;;;;;;;;;19.25;11.25;;;;;6.44;100.00;100529.78;5021083;28;45460;-86
2023/01/19 12:32:29;;;;;;;;;20.50;11.00;;;;;6.44;100.00;100533.22;5020172;28;45286;-85
2023/01/19 12:34:55;;;;;;;;;10.00;10.00;;;;;6.48;100.00;100524.56;4960672;28;45488;-85
2023/01/19 12:37:27;;;;;;;;;14.75;11.00;;;;;6.55;100.00;100528.72;4941397;28;45534;-84
2023/01/19 12:39:54;;;;;;;;;11.00;8.75;;;;;6.63;100.00;100522.59;4937003;28;45420;-83
2023/01/19 12:42:20;;;;;;;;;43.75;36.50;;;;;6.75;100.00;100531.00;4954146;28;45491;-83
2023/01/19 12:44:46;;;;;;;;;26.75;18.00;;;;;6.82;100.00;100523.16;4940655;28;45910;-83
2023/01/19 12:47:14;;;;;;;;;14.00;12.75;;;;;6.88;100.00;100516.13;4959163;28;45540;-84
2023/01/19 12:49:39;;;;;;;;;12.75;10.00;;;;;6.84;100.00;100521.41;4956921;28;45348;-84
2023/01/19 12:52:27;;;;;;;;;13.67;9.67;;;;;6.71;100.00;100526.75;4955785;28;45556;-84
2023/01/19 12:54:56;;;;;;;;;14.25;10.00;;;;;6.57;100.00;100521.81;4940442;28;45358;-83
2023/01/19 12:57:26;;;;;;;;;13.00;11.00;;;;;6.48;100.00;100521.09;4959819;28;45396;-84
2023/01/19 12:59:59;;;;;;;;;17.50;13.00;;;;;6.35;100.00;100517.84;4943054;28;46534;-85
2023/01/19 13:02:25;;;;;;;;;16.75;13.25;;;;;6.25;100.00;100517.13;4934366;28;47154;-83
2023/01/19 13:05:06;;;;;;;;;15.75;11.75;;;;;6.24;100.00;100510.28;4957751;28;45454;-84
2023/01/19 13:08:03;;;;;;;;;10.00;9.50;;;;;6.21;100.00;100497.38;4970983;28;45401;-84
2023/01/19 13:11:04;;;;;;;;;13.50;10.75;;;;;6.18;100.00;100500.00;4962723;28;45476;-83
2023/01/19 13:13:38;;;;;;;;;19.25;11.00;;;;;6.11;100.00;100500.97;5037666;28;45504;-82
2023/01/19 13:16:19;;;;;;;;;10.25;7.75;;;;;6.04;100.00;100501.94;5053345;28;45349;-82
2023/01/19 13:18:47;;;;;;;;;10.50;10.00;;;;;5.98;100.00;100495.09;5034933;28;45357;-83
2023/01/19 13:21:26;;;;;;;;;18.00;11.00;;;;;6.04;100.00;100492.47;5028667;28;46545;-82
2023/01/19 13:23:57;;;;;;;;;15.00;11.50;;;;;6.06;100.00;100493.28;5025517;28;45439;-83